createdAt,value
2022-11-08T00:00:14.138Z,8.37
2022-11-08T00:03:00.920Z,8.31
2022-11-08T00:06:06.099Z,8.32
2022-11-08T00:09:10.779Z,7.86
2022-11-08T00:12:15.935Z,8.24
2022-11-08T00:15:01.992Z,8.34
2022-11-08T00:17:47.915Z,8.28
2022-11-08T00:20:34.397Z,8.47
2022-11-08T00:23:19.888Z,8.31
2022-11-08T00:26:06.890Z,8.31
2022-11-08T00:28:54.281Z,8.31
2022-11-08T00:31:40.513Z,6.64
2022-11-08T00:34:26.730Z,7.79
2022-11-08T00:37:12.839Z,8.34
2022-11-08T00:39:59.493Z,8.21
2022-11-08T00:42:46.105Z,8.18
2022-11-08T00:45:32.395Z,8.38
2022-11-08T00:48:19.926Z,8.17
2022-11-08T00:51:06.939Z,8.37
2022-11-08T00:53:53.676Z,8.27
2022-11-08T00:56:40.388Z,7.89
2022-11-08T00:59:26.561Z,6.94
2022-11-08T01:02:12.989Z,7.66
2022-11-08T01:04:59.281Z,7.98
2022-11-08T01:07:45.412Z,7.61
2022-11-08T01:10:32.066Z,7.11
2022-11-08T01:13:18.578Z,6.50
2022-11-08T01:16:08.740Z,7.47
2022-11-08T01:18:57.573Z,7.70
2022-11-08T01:21:43.885Z,7.84
2022-11-08T01:24:29.840Z,7.68
2022-11-08T01:27:17.450Z,7.82
2022-11-08T01:30:04.810Z,7.03
2022-11-08T01:32:51.030Z,6.77
2022-11-08T01:35:37.060Z,7.41
2022-11-08T01:38:23.329Z,7.70
2022-11-08T01:41:11.571Z,7.93
2022-11-08T01:43:58.664Z,7.47
2022-11-08T01:46:45.742Z,7.48
2022-11-08T01:49:38.987Z,7.71
2022-11-08T01:52:35.732Z,7.59
2022-11-08T01:55:23.349Z,6.80
2022-11-08T01:58:10.651Z,7.11
2022-11-08T02:00:57.557Z,6.50
2022-11-08T02:03:44.664Z,7.26
2022-11-08T02:06:30.869Z,7.57
2022-11-08T02:09:17.017Z,7.04
2022-11-08T02:12:03.333Z,6.64
2022-11-08T02:14:49.300Z,6.67
2022-11-08T02:17:35.547Z,7.07
2022-11-08T02:20:21.647Z,6.89
2022-11-08T02:23:20.680Z,7.04
2022-11-08T02:26:07.234Z,7.40
2022-11-08T02:28:53.014Z,7.46
2022-11-08T02:31:39.353Z,7.55
2022-11-08T02:34:29.561Z,7.34
2022-11-08T02:37:16.728Z,7.18
2022-11-08T02:40:05.135Z,7.44
2022-11-08T02:42:51.573Z,7.22
2022-11-08T02:45:37.953Z,7.13
2022-11-08T02:48:24.408Z,6.97
2022-11-08T02:51:17.387Z,7.11
2022-11-08T02:54:04.126Z,7.00
2022-11-08T02:56:51.065Z,7.06
2022-11-08T02:59:37.399Z,7.19
2022-11-08T03:02:23.554Z,7.31
2022-11-08T03:05:09.823Z,7.33
2022-11-08T03:07:57.549Z,7.32
2022-11-08T03:10:44.317Z,7.32
2022-11-08T03:13:30.707Z,6.86
2022-11-08T03:16:16.601Z,7.31
2022-11-08T03:19:03.125Z,7.33
2022-11-08T03:21:49.475Z,7.25
2022-11-08T03:24:35.251Z,7.24
2022-11-08T03:27:21.284Z,7.22
2022-11-08T03:30:07.653Z,6.80
2022-11-08T03:32:53.776Z,6.69
2022-11-08T03:35:39.781Z,6.30
2022-11-08T03:38:26.673Z,6.72
2022-11-08T03:41:13.015Z,7.02
2022-11-08T03:44:00.483Z,7.17
2022-11-08T03:46:46.563Z,7.05
2022-11-08T03:49:33.050Z,6.46
2022-11-08T03:52:19.021Z,6.58
2022-11-08T03:55:06.639Z,7.18
2022-11-08T03:57:52.845Z,7.01
2022-11-08T04:00:39.132Z,7.21
2022-11-08T04:03:25.943Z,7.03
2022-11-08T04:06:12.036Z,7.09
2022-11-08T04:08:58.818Z,6.55
2022-11-08T04:12:03.917Z,6.61
2022-11-08T04:15:09.584Z,6.63
2022-11-08T04:18:20.725Z,6.86
2022-11-08T04:21:24.648Z,6.51
2022-11-08T04:24:11.813Z,5.52
2022-11-08T04:29:52.213Z,5.99
2022-11-08T04:32:38.471Z,6.62
2022-11-08T04:35:24.505Z,6.63
2022-11-08T04:38:10.973Z,6.84
2022-11-08T04:41:01.379Z,6.72
2022-11-08T04:43:57.069Z,6.68
2022-11-08T04:46:43.641Z,6.81
2022-11-08T04:49:30.060Z,6.53
2022-11-08T04:52:16.385Z,6.52
2022-11-08T04:55:03.722Z,5.92
2022-11-08T04:57:50.880Z,6.19
2022-11-08T05:00:37.463Z,5.67
2022-11-08T05:03:24.334Z,5.37
2022-11-08T05:06:11.678Z,4.28
2022-11-08T05:08:59.119Z,4.40
2022-11-08T05:11:47.480Z,5.79
2022-11-08T05:14:33.898Z,5.98
2022-11-08T05:17:20.462Z,5.43
2022-11-08T05:20:28.334Z,5.06
2022-11-08T05:23:25.520Z,5.58
2022-11-08T05:26:15.945Z,5.59
2022-11-08T05:29:04.329Z,5.79
2022-11-08T05:31:51.737Z,5.21
2022-11-08T05:34:38.903Z,5.47
2022-11-08T05:37:25.505Z,5.24
2022-11-08T05:40:14.179Z,5.68
2022-11-08T05:43:04.603Z,5.38
2022-11-08T05:45:56.675Z,6.06
2022-11-08T05:48:48.861Z,6.16
2022-11-08T05:51:36.053Z,6.14
2022-11-08T05:54:26.880Z,6.24
2022-11-08T05:57:15.458Z,4.44
2022-11-08T06:00:11.615Z,4.94
2022-11-08T06:02:59.314Z,6.05
2022-11-08T06:05:50.259Z,6.17
2022-11-08T06:08:49.894Z,6.42
2022-11-08T06:11:38.403Z,6.19
2022-11-08T06:14:24.699Z,4.34
2022-11-08T06:17:11.780Z,4.79
2022-11-08T06:19:59.668Z,5.48
2022-11-08T06:22:50.916Z,5.49
2022-11-08T06:25:37.722Z,5.58
2022-11-08T06:28:31.627Z,5.82
2022-11-08T06:31:18.182Z,6.25
2022-11-08T06:34:05.946Z,5.19
2022-11-08T06:36:52.903Z,5.69
2022-11-08T06:39:39.073Z,5.88
2022-11-08T06:46:58.421Z,5.20
2022-11-08T06:49:46.127Z,5.54
2022-11-08T06:52:32.494Z,5.84
2022-11-08T06:55:22.785Z,5.64
2022-11-08T06:58:09.976Z,5.27
2022-11-08T07:01:02.749Z,6.27
2022-11-08T07:03:49.297Z,6.63
2022-11-08T07:06:36.068Z,7.15
2022-11-08T07:09:29.356Z,7.36
2022-11-08T07:12:15.711Z,7.46
2022-11-08T07:15:02.559Z,6.91
2022-11-08T07:17:54.811Z,6.67
2022-11-08T07:20:45.601Z,6.63
2022-11-08T07:27:58.139Z,6.48
2022-11-08T07:30:45.253Z,6.54
2022-11-08T07:33:33.685Z,7.24
2022-11-08T07:36:21.928Z,7.25
2022-11-08T07:39:09.494Z,7.63
2022-11-08T07:41:56.551Z,7.65
2022-11-08T07:44:44.864Z,7.55
2022-11-08T07:47:34.264Z,7.27
2022-11-08T07:50:25.292Z,7.13
2022-11-08T07:53:12.921Z,7.44
2022-11-08T07:56:00.507Z,7.46
2022-11-08T07:58:47.901Z,7.89
2022-11-08T08:01:35.120Z,7.53
2022-11-08T08:04:24.589Z,8.32
2022-11-08T08:07:13.268Z,8.41
2022-11-08T08:10:06.517Z,8.72
2022-11-08T08:12:54.490Z,8.63
2022-11-08T08:15:41.455Z,8.92
2022-11-08T08:18:31.906Z,9.01
2022-11-08T08:21:18.659Z,8.58
2022-11-08T08:24:07.460Z,8.85
2022-11-08T08:26:55.078Z,8.80
2022-11-08T08:29:42.087Z,8.98
2022-11-08T08:32:31.509Z,8.55
2022-11-08T08:35:19.535Z,9.30
2022-11-08T08:38:09.336Z,9.06
2022-11-08T08:41:00.407Z,9.50
2022-11-08T08:43:47.667Z,9.51
2022-11-08T08:46:34.131Z,9.80
2022-11-08T08:49:21.643Z,9.79
2022-11-08T08:52:08.940Z,9.41
2022-11-08T08:54:57.048Z,9.88
2022-11-08T08:57:47.427Z,9.50
2022-11-08T09:03:46.456Z,9.42
2022-11-08T09:06:33.861Z,9.94
2022-11-08T09:09:21.111Z,10.16
2022-11-08T09:12:11.845Z,9.95
2022-11-08T09:15:01.105Z,9.80
2022-11-08T09:17:49.096Z,10.09
2022-11-08T09:20:37.597Z,10.13
2022-11-08T09:23:24.789Z,10.19
2022-11-08T09:26:13.674Z,10.23
2022-11-08T09:29:01.996Z,9.91
2022-11-08T09:31:51.731Z,10.23
2022-11-08T09:34:38.140Z,9.66
2022-11-08T09:37:25.895Z,10.00
2022-11-08T09:40:28.523Z,10.26
2022-11-08T09:43:57.352Z,10.56
2022-11-08T09:46:57.613Z,10.73
2022-11-08T09:50:03.739Z,10.58
2022-11-08T09:53:19.343Z,10.30
2022-11-08T09:56:24.114Z,10.55
2022-11-08T09:59:28.289Z,10.85
2022-11-08T10:02:23.365Z,10.87
2022-11-08T10:05:16.027Z,10.82
2022-11-08T10:08:12.391Z,11.21
2022-11-08T10:11:10.393Z,11.30
2022-11-08T10:14:06.372Z,11.12
2022-11-08T10:17:09.266Z,10.49
2022-11-08T10:20:21.672Z,10.90
2022-11-08T10:23:27.078Z,10.57
2022-11-08T10:26:26.661Z,11.22
2022-11-08T10:29:17.852Z,11.22
2022-11-08T10:32:11.966Z,11.56
2022-11-08T10:38:30.831Z,11.41
2022-11-08T10:41:40.728Z,11.78
2022-11-08T10:44:28.411Z,11.98
2022-11-08T10:47:30.708Z,11.41
2022-11-08T10:50:21.396Z,11.60
2022-11-08T10:53:14.529Z,11.65
2022-11-08T10:56:11.618Z,11.49
2022-11-08T10:58:59.195Z,11.78
2022-11-08T11:04:45.136Z,11.55
2022-11-08T11:07:34.733Z,11.78
2022-11-08T11:10:31.013Z,11.87
2022-11-08T11:13:23.883Z,11.65
2022-11-08T11:16:16.818Z,12.11
2022-11-08T11:19:05.508Z,12.27
2022-11-08T11:22:00.369Z,11.76
2022-11-08T11:24:48.374Z,12.07
2022-11-08T11:27:37.303Z,12.48
2022-11-08T11:30:28.372Z,12.85
2022-11-08T11:33:23.307Z,12.33
2022-11-08T11:36:13.454Z,12.17
2022-11-08T11:39:05.392Z,12.83
2022-11-08T11:42:23.915Z,12.82
2022-11-08T11:45:24.609Z,12.30
2022-11-08T11:48:17.480Z,12.14
2022-11-08T11:51:04.499Z,13.03
2022-11-08T11:53:52.538Z,13.38
2022-11-08T11:56:56.446Z,12.95
2022-11-08T12:00:10.309Z,13.25
2022-11-08T12:03:04.273Z,12.82
2022-11-08T12:05:59.774Z,12.86
2022-11-08T12:08:48.006Z,12.92
2022-11-08T12:11:45.715Z,13.39
2022-11-08T12:14:39.583Z,13.44
2022-11-08T12:17:33.631Z,13.16
2022-11-08T12:20:27.461Z,12.69
2022-11-08T12:23:29.865Z,12.96
2022-11-08T12:26:19.834Z,12.93
2022-11-08T12:29:18.415Z,13.37
2022-11-08T12:32:08.336Z,13.45
2022-11-08T12:35:20.420Z,12.94
2022-11-08T12:38:23.666Z,12.69
2022-11-08T12:41:36.596Z,13.39
2022-11-08T12:45:01.475Z,13.83
2022-11-08T12:48:30.316Z,13.84
2022-11-08T12:51:32.638Z,14.08
2022-11-08T12:54:29.359Z,13.76
2022-11-08T12:57:28.402Z,14.08
2022-11-08T13:00:20.253Z,14.00
2022-11-08T13:03:32.665Z,14.48
2022-11-08T13:06:34.383Z,14.05
2022-11-08T13:09:35.792Z,14.00
2022-11-08T13:12:27.154Z,14.35
2022-11-08T13:15:29.408Z,15.05
2022-11-08T13:18:16.774Z,14.80
2022-11-08T13:21:23.461Z,15.34
2022-11-08T13:24:42.668Z,15.42
2022-11-08T13:27:30.778Z,15.50
2022-11-08T13:30:24.402Z,15.39
2022-11-08T13:36:26.555Z,15.58
2022-11-08T13:39:23.025Z,15.32
2022-11-08T13:42:16.228Z,14.95
2022-11-08T13:48:26.585Z,15.40
2022-11-08T13:51:21.248Z,15.44
2022-11-08T13:54:21.325Z,15.67
2022-11-08T13:57:18.787Z,15.46
2022-11-08T14:03:05.354Z,15.72
2022-11-08T14:05:57.889Z,15.64
2022-11-08T14:08:57.336Z,15.68
2022-11-08T14:12:05.399Z,15.94
2022-11-08T14:14:58.565Z,16.00
2022-11-08T14:17:48.370Z,16.02
2022-11-08T14:20:43.511Z,16.01
2022-11-08T14:23:34.367Z,15.81
2022-11-08T14:26:23.683Z,15.90
2022-11-08T14:29:21.397Z,15.88
2022-11-08T14:32:19.788Z,15.94
2022-11-08T14:35:27.445Z,15.97
2022-11-08T14:38:17.875Z,15.70
2022-11-08T14:41:06.864Z,15.77
2022-11-08T14:44:05.383Z,16.05
2022-11-08T14:49:58.603Z,16.17
2022-11-08T14:52:50.650Z,16.23
2022-11-08T14:55:37.884Z,15.89
2022-11-08T14:58:33.901Z,16.27
2022-11-08T15:01:29.439Z,16.07
2022-11-08T15:04:19.713Z,15.68
2022-11-08T15:07:16.906Z,15.39
2022-11-08T15:10:18.392Z,15.13
2022-11-08T15:13:09.748Z,14.92
2022-11-08T15:19:24.577Z,14.89
2022-11-08T15:22:24.485Z,14.50
2022-11-08T15:25:14.090Z,14.23
2022-11-08T15:28:23.109Z,13.75
2022-11-08T15:31:10.694Z,13.48
2022-11-08T15:33:56.663Z,13.37
2022-11-08T15:36:42.572Z,12.81
2022-11-08T15:39:28.803Z,13.09
2022-11-08T15:42:15.224Z,12.93
2022-11-08T15:45:05.041Z,12.26
2022-11-08T15:47:51.409Z,12.31
2022-11-08T15:50:37.389Z,12.67
2022-11-08T15:53:24.330Z,12.09
2022-11-08T15:56:10.390Z,12.24
2022-11-08T15:58:56.476Z,11.74
2022-11-08T16:01:43.520Z,12.06
2022-11-08T16:04:30.079Z,11.88
2022-11-08T16:07:16.689Z,12.04
2022-11-08T16:10:03.292Z,11.82
2022-11-08T16:12:49.399Z,11.96
2022-11-08T16:15:35.268Z,11.83
2022-11-08T16:18:21.218Z,11.79
2022-11-08T16:21:09.771Z,11.61
2022-11-08T16:23:55.644Z,11.55
2022-11-08T16:26:42.825Z,11.23
2022-11-08T16:29:29.322Z,10.95
2022-11-08T16:32:15.429Z,11.29
2022-11-08T16:35:01.441Z,11.45
2022-11-08T16:37:47.741Z,11.42
2022-11-08T16:40:33.634Z,11.41
2022-11-08T16:43:19.743Z,11.20
2022-11-08T16:46:06.956Z,11.13
2022-11-08T16:48:57.396Z,11.13
2022-11-08T16:51:43.219Z,11.32
2022-11-08T16:54:29.636Z,11.19
2022-11-08T17:00:21.917Z,11.24
2022-11-08T17:03:07.932Z,11.32
2022-11-08T17:05:54.188Z,11.30
2022-11-08T17:08:40.261Z,10.95
2022-11-08T17:11:26.677Z,11.16
2022-11-08T17:14:12.482Z,11.14
2022-11-08T17:16:58.907Z,11.04
2022-11-08T17:19:44.710Z,10.99
2022-11-08T17:22:31.006Z,10.92
2022-11-08T17:25:18.125Z,10.90
2022-11-08T17:28:04.268Z,10.74
2022-11-08T17:30:50.479Z,10.87
2022-11-08T17:33:37.143Z,11.04
2022-11-08T17:36:23.373Z,11.14
2022-11-08T17:39:11.181Z,11.12
2022-11-08T17:41:56.844Z,11.00
2022-11-08T17:44:43.133Z,11.13
2022-11-08T17:47:29.098Z,11.23
2022-11-08T17:50:15.228Z,11.40
2022-11-08T17:53:01.097Z,11.16
2022-11-08T17:55:57.365Z,11.10
2022-11-08T17:58:43.396Z,10.67
2022-11-08T18:01:33.927Z,11.05
2022-11-08T18:04:20.470Z,11.09
2022-11-08T18:07:06.495Z,10.95
2022-11-08T18:09:52.663Z,10.84
2022-11-08T18:12:38.821Z,11.05
2022-11-08T18:15:25.067Z,10.90
2022-11-08T18:18:11.239Z,11.17
2022-11-08T18:20:57.402Z,11.37
2022-11-08T18:23:43.491Z,11.16
2022-11-08T18:26:29.785Z,11.16
2022-11-08T18:29:15.608Z,11.37
2022-11-08T18:32:02.015Z,11.29
2022-11-08T18:34:48.148Z,11.61
2022-11-08T18:37:34.327Z,11.37
2022-11-08T18:40:20.561Z,11.15
2022-11-08T18:43:07.482Z,11.26
2022-11-08T18:45:53.267Z,11.68
2022-11-08T18:48:39.309Z,11.56
2022-11-08T18:51:25.282Z,11.66
2022-11-08T18:54:11.298Z,11.40
2022-11-08T18:56:57.313Z,11.53
2022-11-08T18:59:43.536Z,11.37
2022-11-08T19:02:29.514Z,11.40
2022-11-08T19:05:15.842Z,11.54
2022-11-08T19:08:01.564Z,11.76
2022-11-08T19:10:55.398Z,11.43
2022-11-08T19:13:41.211Z,11.55
2022-11-08T19:16:27.833Z,11.61
2022-11-08T19:19:13.441Z,11.33
2022-11-08T19:21:59.938Z,11.49
2022-11-08T19:24:45.834Z,11.01
2022-11-08T19:27:32.377Z,11.31
2022-11-08T19:30:18.178Z,11.38
2022-11-08T19:33:04.136Z,11.02
2022-11-08T19:35:50.131Z,11.45
2022-11-08T19:38:36.811Z,11.23
2022-11-08T19:41:23.417Z,11.34
2022-11-08T19:44:10.176Z,11.73
2022-11-08T19:46:56.104Z,11.66
2022-11-08T19:49:42.519Z,11.58
2022-11-08T19:52:28.410Z,11.68
2022-11-08T19:55:14.846Z,11.41
2022-11-08T19:58:00.737Z,11.90
2022-11-08T20:00:47.398Z,12.03
2022-11-08T20:03:33.863Z,11.84
2022-11-08T20:06:28.733Z,11.81
2022-11-08T20:09:14.852Z,11.52
2022-11-08T20:12:00.753Z,11.83
2022-11-08T20:14:49.067Z,11.33
2022-11-08T20:17:35.017Z,11.41
2022-11-08T20:20:21.087Z,11.23
2022-11-08T20:23:07.339Z,11.49
2022-11-08T20:25:53.599Z,11.29
2022-11-08T20:28:41.944Z,11.35
2022-11-08T20:31:28.690Z,11.57
2022-11-08T20:34:14.553Z,11.53
2022-11-08T20:37:00.758Z,11.36
2022-11-08T20:39:46.740Z,11.57
2022-11-08T20:42:33.046Z,11.69
2022-11-08T20:45:18.860Z,11.38
2022-11-08T20:48:05.235Z,11.85
2022-11-08T20:50:50.809Z,11.57
2022-11-08T20:53:37.040Z,11.28
2022-11-08T20:56:23.407Z,11.50
2022-11-08T20:59:09.548Z,11.76
2022-11-08T21:01:55.561Z,11.57
2022-11-08T21:04:41.679Z,11.52
2022-11-08T21:10:43.054Z,11.40
2022-11-08T21:13:30.869Z,11.11
2022-11-08T21:16:29.912Z,11.64
2022-11-08T21:19:17.709Z,11.17
2022-11-08T21:22:15.898Z,11.73
2022-11-08T21:25:01.658Z,11.74
2022-11-08T21:27:48.098Z,12.00
2022-11-08T21:30:33.978Z,11.57
2022-11-08T21:33:20.471Z,11.79
2022-11-08T21:36:06.741Z,11.78
2022-11-08T21:38:53.514Z,11.33
2022-11-08T21:41:39.407Z,11.58
2022-11-08T21:44:25.707Z,11.88
2022-11-08T21:47:11.605Z,11.42
2022-11-08T21:49:57.890Z,11.64
2022-11-08T21:52:43.787Z,11.49
2022-11-08T21:55:30.149Z,11.81
2022-11-08T21:58:16.193Z,11.68
2022-11-08T22:01:06.083Z,11.70
2022-11-08T22:03:52.251Z,11.76
2022-11-08T22:06:38.231Z,11.82
2022-11-08T22:09:24.639Z,12.10
2022-11-08T22:12:10.357Z,12.25
2022-11-08T22:14:56.074Z,12.17
2022-11-08T22:18:00.997Z,12.11
2022-11-08T22:21:07.036Z,11.87
2022-11-08T22:23:52.728Z,11.53
2022-11-08T22:26:39.290Z,11.98
2022-11-08T22:29:25.069Z,12.13
2022-11-08T22:32:11.452Z,11.96
2022-11-08T22:34:57.252Z,11.48
2022-11-08T22:37:43.721Z,11.62
2022-11-08T22:40:29.525Z,11.13
2022-11-08T22:43:15.614Z,11.71
2022-11-08T22:46:01.346Z,11.47
2022-11-08T22:48:47.613Z,11.16
2022-11-08T22:51:33.338Z,11.06
2022-11-08T22:54:19.566Z,11.67
2022-11-08T22:57:05.578Z,11.60
2022-11-08T22:59:51.737Z,11.58
2022-11-08T23:02:37.449Z,11.50
2022-11-08T23:05:23.827Z,11.53
2022-11-08T23:08:09.761Z,11.05
2022-11-08T23:11:17.004Z,10.99
2022-11-08T23:14:21.359Z,11.24
2022-11-08T23:17:08.273Z,11.51
2022-11-08T23:20:13.193Z,11.39
2022-11-08T23:23:18.287Z,10.84
2022-11-08T23:26:04.638Z,11.14
2022-11-08T23:29:09.212Z,10.70
2022-11-08T23:31:54.965Z,11.15
2022-11-08T23:34:41.367Z,11.06
2022-11-08T23:37:27.391Z,10.86
2022-11-08T23:40:33.011Z,11.20
2022-11-08T23:43:37.736Z,10.88
2022-11-08T23:46:23.961Z,10.51
2022-11-08T23:49:09.870Z,10.77
2022-11-08T23:51:55.793Z,10.32
2022-11-08T23:54:41.745Z,10.66
2022-11-08T23:57:27.564Z,11.21
